sensor_id;sensor_type;location;lat;lon;timestamp;pressure;altitude;pressure_sealevel;temperature;humidity
71465;BME280;59274;49.874;9.154;2023-10-08T00:00:47;101015.72;;;13.94;100.00
71465;BME280;59274;49.874;9.154;2023-10-08T00:03:15;101020.34;;;13.90;100.00
71465;BME280;59274;49.874;9.154;2023-10-08T00:05:42;101022.69;;;13.88;100.00
71465;BME280;59274;49.874;9.154;2023-10-08T00:08:08;101019.44;;;13.79;100.00
71465;BME280;59274;49.874;9.154;2023-10-08T00:10:40;101028.03;;;13.77;100.00
71465;BME280;59274;49.874;9.154;2023-10-08T00:13:14;101034.59;;;13.72;100.00
71465;BME280;59274;49.874;9.154;2023-10-08T00:15:43;101032.28;;;13.75;100.00
71465;BME280;59274;49.874;9.154;2023-10-08T00:18:19;101025.59;;;13.68;100.00
71465;BME280;59274;49.874;9.154;2023-10-08T00:20:45;101021.28;;;13.67;100.00
71465;BME280;59274;49.874;9.154;2023-10-08T00:23:28;101020.84;;;13.62;100.00
71465;BME280;59274;49.874;9.154;2023-10-08T00:25:55;101019.22;;;13.57;100.00
71465;BME280;59274;49.874;9.154;2023-10-08T00:28:23;101022.28;;;13.52;100.00
71465;BME280;59274;49.874;9.154;2023-10-08T00:30:50;101022.72;;;13.54;100.00
71465;BME280;59274;49.874;9.154;2023-10-08T00:33:15;101013.31;;;13.52;100.00
71465;BME280;59274;49.874;9.154;2023-10-08T00:35:42;101012.22;;;13.56;100.00
71465;BME280;59274;49.874;9.154;2023-10-08T00:38:11;101012.88;;;13.46;100.00
71465;BME280;59274;49.874;9.154;2023-10-08T00:40:41;101006.28;;;13.51;100.00
71465;BME280;59274;49.874;9.154;2023-10-08T00:45:57;101006.78;;;13.60;100.00
71465;BME280;59274;49.874;9.154;2023-10-08T00:48:25;101003.69;;;13.61;100.00
71465;BME280;59274;49.874;9.154;2023-10-08T00:50:56;101006.38;;;13.58;100.00
71465;BME280;59274;49.874;9.154;2023-10-08T00:53:34;101010.31;;;13.60;100.00
71465;BME280;59274;49.874;9.154;2023-10-08T00:56:04;101007.31;;;13.72;100.00
71465;BME280;59274;49.874;9.154;2023-10-08T00:58:39;100999.03;;;13.65;100.00
71465;BME280;59274;49.874;9.154;2023-10-08T01:01:06;101010.38;;;13.67;100.00
71465;BME280;59274;49.874;9.154;2023-10-08T01:03:38;101008.44;;;13.68;100.00
71465;BME280;59274;49.874;9.154;2023-10-08T01:06:11;101017.00;;;13.66;100.00
71465;BME280;59274;49.874;9.154;2023-10-08T01:08:37;100996.69;;;13.64;100.00
71465;BME280;59274;49.874;9.154;2023-10-08T01:11:20;101003.78;;;13.72;100.00
71465;BME280;59274;49.874;9.154;2023-10-08T01:13:51;101002.69;;;13.77;100.00
71465;BME280;59274;49.874;9.154;2023-10-08T01:16:19;100997.59;;;13.79;100.00
71465;BME280;59274;49.874;9.154;2023-10-08T01:18:46;100985.53;;;13.80;100.00
71465;BME280;59274;49.874;9.154;2023-10-08T01:21:16;100982.81;;;13.80;100.00
71465;BME280;59274;49.874;9.154;2023-10-08T01:23:56;100985.94;;;13.82;100.00
71465;BME280;59274;49.874;9.154;2023-10-08T01:26:25;100987.53;;;13.83;100.00
71465;BME280;59274;49.874;9.154;2023-10-08T01:28:51;100979.28;;;13.79;100.00
71465;BME280;59274;49.874;9.154;2023-10-08T01:31:18;100981.66;;;13.81;100.00
71465;BME280;59274;49.874;9.154;2023-10-08T01:33:43;100987.09;;;13.81;100.00
71465;BME280;59274;49.874;9.154;2023-10-08T01:36:15;100978.91;;;13.77;100.00
71465;BME280;59274;49.874;9.154;2023-10-08T01:38:41;100984.75;;;13.79;100.00
71465;BME280;59274;49.874;9.154;2023-10-08T01:41:13;100993.78;;;13.83;100.00
71465;BME280;59274;49.874;9.154;2023-10-08T01:43:45;100992.94;;;13.79;100.00
71465;BME280;59274;49.874;9.154;2023-10-08T01:46:11;100981.28;;;13.82;100.00
71465;BME280;59274;49.874;9.154;2023-10-08T01:48:38;100987.09;;;13.81;100.00
71465;BME280;59274;49.874;9.154;2023-10-08T01:51:05;100986.75;;;13.82;100.00
71465;BME280;59274;49.874;9.154;2023-10-08T01:53:51;100997.69;;;13.86;100.00
71465;BME280;59274;49.874;9.154;2023-10-08T01:56:19;100986.00;;;13.89;100.00
71465;BME280;59274;49.874;9.154;2023-10-08T01:58:44;100996.19;;;13.92;100.00
71465;BME280;59274;49.874;9.154;2023-10-08T02:01:12;101005.56;;;13.91;100.00
71465;BME280;59274;49.874;9.154;2023-10-08T02:03:38;100999.00;;;13.99;100.00
71465;BME280;59274;49.874;9.154;2023-10-08T02:06:03;101007.13;;;13.92;100.00
71465;BME280;59274;49.874;9.154;2023-10-08T02:08:31;101000.81;;;13.88;100.00
71465;BME280;59274;49.874;9.154;2023-10-08T02:10:57;101000.88;;;13.91;100.00
71465;BME280;59274;49.874;9.154;2023-10-08T02:13:22;101003.91;;;13.83;100.00
71465;BME280;59274;49.874;9.154;2023-10-08T02:15:51;101007.78;;;13.78;100.00
71465;BME280;59274;49.874;9.154;2023-10-08T02:18:20;101007.78;;;13.78;100.00
71465;BME280;59274;49.874;9.154;2023-10-08T02:20:48;101003.84;;;13.79;100.00
71465;BME280;59274;49.874;9.154;2023-10-08T02:23:13;101016.69;;;13.75;100.00
71465;BME280;59274;49.874;9.154;2023-10-08T02:25:39;101009.22;;;13.68;100.00
71465;BME280;59274;49.874;9.154;2023-10-08T02:28:08;101009.97;;;13.65;100.00
71465;BME280;59274;49.874;9.154;2023-10-08T02:30:34;101016.28;;;13.73;100.00
71465;BME280;59274;49.874;9.154;2023-10-08T02:33:01;101020.16;;;13.68;100.00
71465;BME280;59274;49.874;9.154;2023-10-08T02:35:27;101014.25;;;13.66;100.00
71465;BME280;59274;49.874;9.154;2023-10-08T02:37:52;101013.03;;;13.60;100.00
71465;BME280;59274;49.874;9.154;2023-10-08T02:40:20;101005.56;;;13.57;100.00
71465;BME280;59274;49.874;9.154;2023-10-08T02:42:53;100997.72;;;13.52;100.00
71465;BME280;59274;49.874;9.154;2023-10-08T02:45:28;101000.47;;;13.52;100.00
71465;BME280;59274;49.874;9.154;2023-10-08T02:47:55;101000.03;;;13.50;100.00
71465;BME280;59274;49.874;9.154;2023-10-08T02:50:22;100988.66;;;13.41;100.00
71465;BME280;59274;49.874;9.154;2023-10-08T02:52:50;100994.09;;;13.41;100.00
71465;BME280;59274;49.874;9.154;2023-10-08T02:55:19;101003.47;;;13.44;100.00
71465;BME280;59274;49.874;9.154;2023-10-08T02:58:00;100996.13;;;13.48;100.00
71465;BME280;59274;49.874;9.154;2023-10-08T03:00:28;100992.19;;;13.45;100.00
71465;BME280;59274;49.874;9.154;2023-10-08T03:02:59;100991.03;;;13.46;100.00
71465;BME280;59274;49.874;9.154;2023-10-08T03:05:27;100994.97;;;13.49;100.00
71465;BME280;59274;49.874;9.154;2023-10-08T03:08:01;100988.72;;;13.48;100.00
71465;BME280;59274;49.874;9.154;2023-10-08T03:10:27;100990.31;;;13.49;100.00
71465;BME280;59274;49.874;9.154;2023-10-08T03:12:58;100987.56;;;13.49;100.00
71465;BME280;59274;49.874;9.154;2023-10-08T03:15:29;100984.38;;;13.44;100.00
71465;BME280;59274;49.874;9.154;2023-10-08T03:17:59;100993.34;;;13.44;100.00
71465;BME280;59274;49.874;9.154;2023-10-08T03:20:35;100996.91;;;13.48;100.00
71465;BME280;59274;49.874;9.154;2023-10-08T03:23:04;101002.03;;;13.53;100.00
71465;BME280;59274;49.874;9.154;2023-10-08T03:25:57;100999.72;;;13.55;100.00
71465;BME280;59274;49.874;9.154;2023-10-08T03:28:29;101005.97;;;13.56;100.00
71465;BME280;59274;49.874;9.154;2023-10-08T03:30:55;101005.56;;;13.54;100.00
71465;BME280;59274;49.874;9.154;2023-10-08T03:33:43;101004.41;;;13.58;100.00
71465;BME280;59274;49.874;9.154;2023-10-08T03:36:14;101004.03;;;13.56;100.00
71465;BME280;59274;49.874;9.154;2023-10-08T03:38:46;101021.13;;;13.53;100.00
71465;BME280;59274;49.874;9.154;2023-10-08T03:41:25;101014.94;;;13.56;100.00
71465;BME280;59274;49.874;9.154;2023-10-08T03:43:55;101039.91;;;13.58;100.00
71465;BME280;59274;49.874;9.154;2023-10-08T03:46:41;101031.72;;;13.58;100.00
71465;BME280;59274;49.874;9.154;2023-10-08T03:49:15;101034.53;;;13.65;100.00
71465;BME280;59274;49.874;9.154;2023-10-08T03:52:00;101047.78;;;13.63;100.00
71465;BME280;59274;49.874;9.154;2023-10-08T03:54:26;101045.50;;;13.69;100.00
71465;BME280;59274;49.874;9.154;2023-10-08T03:57:01;101050.81;;;13.58;100.00
71465;BME280;59274;49.874;9.154;2023-10-08T03:59:29;101054.34;;;13.59;100.00
71465;BME280;59274;49.874;9.154;2023-10-08T04:01:54;101058.97;;;13.55;100.00
71465;BME280;59274;49.874;9.154;2023-10-08T04:04:23;101052.66;;;13.47;100.00
71465;BME280;59274;49.874;9.154;2023-10-08T04:06:56;101049.50;;;13.45;100.00
71465;BME280;59274;49.874;9.154;2023-10-08T04:09:41;101047.09;;;13.40;100.00
71465;BME280;59274;49.874;9.154;2023-10-08T04:12:07;101050.19;;;13.39;100.00
71465;BME280;59274;49.874;9.154;2023-10-08T04:14:35;101046.69;;;13.38;100.00
71465;BME280;59274;49.874;9.154;2023-10-08T04:17:01;101056.50;;;13.43;100.00
71465;BME280;59274;49.874;9.154;2023-10-08T04:19:26;101044.03;;;13.45;100.00
71465;BME280;59274;49.874;9.154;2023-10-08T04:21:56;101038.94;;;13.44;100.00
71465;BME280;59274;49.874;9.154;2023-10-08T04:24:23;101033.88;;;13.42;100.00
71465;BME280;59274;49.874;9.154;2023-10-08T04:27:00;101040.50;;;13.41;100.00
71465;BME280;59274;49.874;9.154;2023-10-08T04:29:28;101029.97;;;13.43;100.00
71465;BME280;59274;49.874;9.154;2023-10-08T04:32:00;101032.41;;;13.48;100.00
71465;BME280;59274;49.874;9.154;2023-10-08T04:34:37;101028.09;;;13.47;100.00
71465;BME280;59274;49.874;9.154;2023-10-08T04:37:03;101022.22;;;13.45;100.00
71465;BME280;59274;49.874;9.154;2023-10-08T04:39:37;101026.94;;;13.48;100.00
71465;BME280;59274;49.874;9.154;2023-10-08T04:42:05;101033.56;;;13.51;100.00
71465;BME280;59274;49.874;9.154;2023-10-08T04:44:38;101021.84;;;13.47;100.00
71465;BME280;59274;49.874;9.154;2023-10-08T04:47:06;101020.00;;;13.58;100.00
71465;BME280;59274;49.874;9.154;2023-10-08T04:49:53;101021.94;;;13.54;100.00
71465;BME280;59274;49.874;9.154;2023-10-08T04:52:18;101014.59;;;13.61;100.00
71465;BME280;59274;49.874;9.154;2023-10-08T04:54:45;101024.41;;;13.66;100.00
71465;BME280;59274;49.874;9.154;2023-10-08T04:57:17;101018.53;;;13.64;100.00
71465;BME280;59274;49.874;9.154;2023-10-08T04:59:44;101017.75;;;13.63;100.00
71465;BME280;59274;49.874;9.154;2023-10-08T05:02:12;101028.59;;;13.56;100.00
71465;BME280;59274;49.874;9.154;2023-10-08T05:04:38;101028.59;;;13.56;100.00
71465;BME280;59274;49.874;9.154;2023-10-08T05:07:16;101024.66;;;13.54;100.00
71465;BME280;59274;49.874;9.154;2023-10-08T05:10:00;101030.13;;;13.54;100.00
71465;BME280;59274;49.874;9.154;2023-10-08T05:12:29;101023.50;;;13.55;100.00
71465;BME280;59274;49.874;9.154;2023-10-08T05:15:11;101036.03;;;13.59;100.00
71465;BME280;59274;49.874;9.154;2023-10-08T05:17:40;101029.38;;;13.57;100.00
71465;BME280;59274;49.874;9.154;2023-10-08T05:20:16;101032.59;;;13.66;100.00
71465;BME280;59274;49.874;9.154;2023-10-08T05:23:00;101038.09;;;13.69;100.00
71465;BME280;59274;49.874;9.154;2023-10-08T05:25:49;101038.09;;;13.69;100.00
71465;BME280;59274;49.874;9.154;2023-10-08T05:28:30;101025.97;;;13.67;100.00
71465;BME280;59274;49.874;9.154;2023-10-08T05:31:07;101034.16;;;13.67;100.00
71465;BME280;59274;49.874;9.154;2023-10-08T05:33:42;101027.50;;;13.64;100.00
71465;BME280;59274;49.874;9.154;2023-10-08T05:36:26;101036.53;;;13.68;100.00
71465;BME280;59274;49.874;9.154;2023-10-08T05:39:18;101033.38;;;13.66;100.00
71465;BME280;59274;49.874;9.154;2023-10-08T05:41:49;101026.41;;;13.72;100.00
71465;BME280;59274;49.874;9.154;2023-10-08T05:44:30;101023.28;;;13.70;100.00
71465;BME280;59274;49.874;9.154;2023-10-08T05:47:08;101015.63;;;13.83;100.00
71465;BME280;59274;49.874;9.154;2023-10-08T05:49:52;101011.66;;;13.77;100.00
71465;BME280;59274;49.874;9.154;2023-10-08T05:52:41;101017.91;;;13.78;100.00
71465;BME280;59274;49.874;9.154;2023-10-08T05:55:17;101025.34;;;13.81;100.00
71465;BME280;59274;49.874;9.154;2023-10-08T05:57:59;101014.00;;;13.79;100.00
71465;BME280;59274;49.874;9.154;2023-10-08T06:00:46;101003.94;;;13.86;100.00
71465;BME280;59274;49.874;9.154;2023-10-08T06:03:15;101002.78;;;13.87;100.00
71465;BME280;59274;49.874;9.154;2023-10-08T06:06:08;100999.25;;;13.87;100.00
71465;BME280;59274;49.874;9.154;2023-10-08T06:08:40;101005.13;;;13.89;100.00
71465;BME280;59274;49.874;9.154;2023-10-08T06:11:35;101014.91;;;13.90;100.00
71465;BME280;59274;49.874;9.154;2023-10-08T06:14:21;101023.16;;;13.97;100.00
71465;BME280;59274;49.874;9.154;2023-10-08T06:17:07;101032.16;;;13.97;100.00
71465;BME280;59274;49.874;9.154;2023-10-08T06:19:49;101013.41;;;13.96;100.00
71465;BME280;59274;49.874;9.154;2023-10-08T06:22:18;101022.41;;;14.00;100.00
71465;BME280;59274;49.874;9.154;2023-10-08T06:24:44;101025.53;;;14.02;100.00
71465;BME280;59274;49.874;9.154;2023-10-08T06:27:10;101045.50;;;14.06;100.00
71465;BME280;59274;49.874;9.154;2023-10-08T06:29:38;101059.59;;;14.11;100.00
71465;BME280;59274;49.874;9.154;2023-10-08T06:32:10;101090.88;;;14.18;100.00
71465;BME280;59274;49.874;9.154;2023-10-08T06:34:37;101097.53;;;14.20;100.00
71465;BME280;59274;49.874;9.154;2023-10-08T06:37:05;101096.06;;;14.30;100.00
71465;BME280;59274;49.874;9.154;2023-10-08T06:39:33;101106.72;;;14.38;100.00
71465;BME280;59274;49.874;9.154;2023-10-08T06:42:15;101093.91;;;14.46;100.00
71465;BME280;59274;49.874;9.154;2023-10-08T06:44:41;101107.28;;;14.58;100.00
71465;BME280;59274;49.874;9.154;2023-10-08T06:47:11;101118.63;;;14.60;100.00
71465;BME280;59274;49.874;9.154;2023-10-08T06:49:38;101128.00;;;14.59;100.00
71465;BME280;59274;49.874;9.154;2023-10-08T06:52:04;101129.50;;;14.53;100.00
71465;BME280;59274;49.874;9.154;2023-10-08T06:54:29;101125.50;;;14.43;100.00
71465;BME280;59274;49.874;9.154;2023-10-08T06:56:56;101133.25;;;14.38;100.00
71465;BME280;59274;49.874;9.154;2023-10-08T06:59:21;101130.06;;;14.36;100.00
71465;BME280;59274;49.874;9.154;2023-10-08T07:01:51;101135.19;;;14.37;100.00
71465;BME280;59274;49.874;9.154;2023-10-08T07:04:17;101139.56;;;14.42;100.00
71465;BME280;59274;49.874;9.154;2023-10-08T07:06:46;101142.31;;;14.45;100.00
71465;BME280;59274;49.874;9.154;2023-10-08T07:09:13;101135.75;;;14.54;100.00
71465;BME280;59274;49.874;9.154;2023-10-08T07:11:49;101142.50;;;14.67;100.00
71465;BME280;59274;49.874;9.154;2023-10-08T07:14:28;101156.25;;;14.74;100.00
71465;BME280;59274;49.874;9.154;2023-10-08T07:16:55;101152.03;;;14.83;100.00
71465;BME280;59274;49.874;9.154;2023-10-08T07:19:24;101151.69;;;14.92;100.00
71465;BME280;59274;49.874;9.154;2023-10-08T07:21:59;101136.16;;;15.03;100.00
71465;BME280;59274;49.874;9.154;2023-10-08T07:24:29;101143.66;;;15.13;100.00
71465;BME280;59274;49.874;9.154;2023-10-08T07:26:56;101151.16;;;15.23;100.00
71465;BME280;59274;49.874;9.154;2023-10-08T07:29:21;101140.63;;;15.29;100.00
71465;BME280;59274;49.874;9.154;2023-10-08T07:31:47;101155.16;;;15.37;100.00
71465;BME280;59274;49.874;9.154;2023-10-08T07:34:18;101154.06;;;15.52;100.00
71465;BME280;59274;49.874;9.154;2023-10-08T07:36:48;101155.28;;;15.58;100.00
71465;BME280;59274;49.874;9.154;2023-10-08T07:39:20;101160.81;;;15.65;100.00
71465;BME280;59274;49.874;9.154;2023-10-08T07:42:02;101170.25;;;15.75;100.00
71465;BME280;59274;49.874;9.154;2023-10-08T07:44:30;101165.59;;;15.82;100.00
71465;BME280;59274;49.874;9.154;2023-10-08T07:46:56;101162.50;;;15.91;100.00
71465;BME280;59274;49.874;9.154;2023-10-08T07:49:25;101164.47;;;15.94;100.00
71465;BME280;59274;49.874;9.154;2023-10-08T07:51:53;101174.66;;;15.97;100.00
71465;BME280;59274;49.874;9.154;2023-10-08T07:54:23;101179.38;;;16.07;100.00
71465;BME280;59274;49.874;9.154;2023-10-08T07:56:50;101168.09;;;16.19;100.00
71465;BME280;59274;49.874;9.154;2023-10-08T07:59:37;101172.00;;;16.22;100.00
71465;BME280;59274;49.874;9.154;2023-10-08T08:02:05;101166.50;;;16.22;100.00
71465;BME280;59274;49.874;9.154;2023-10-08T08:04:39;101157.91;;;16.20;100.00
71465;BME280;59274;49.874;9.154;2023-10-08T08:07:06;101149.72;;;16.34;100.00
71465;BME280;59274;49.874;9.154;2023-10-08T08:09:31;101151.66;;;16.33;100.00
71465;BME280;59274;49.874;9.154;2023-10-08T08:12:06;101150.09;;;16.36;100.00
71465;BME280;59274;49.874;9.154;2023-10-08T08:14:37;101143.06;;;16.38;100.00
71465;BME280;59274;49.874;9.154;2023-10-08T08:17:06;101148.94;;;16.40;100.00
71465;BME280;59274;49.874;9.154;2023-10-08T08:19:46;101149.34;;;16.46;100.00
71465;BME280;59274;49.874;9.154;2023-10-08T08:22:21;101136.03;;;16.48;100.00
71465;BME280;59274;49.874;9.154;2023-10-08T08:24:53;101136.41;;;16.57;100.00
71465;BME280;59274;49.874;9.154;2023-10-08T08:27:25;101154.06;;;16.70;100.00
71465;BME280;59274;49.874;9.154;2023-10-08T08:30:13;101156.81;;;16.77;100.00
71465;BME280;59274;49.874;9.154;2023-10-08T08:32:44;101164.28;;;16.88;100.00
71465;BME280;59274;49.874;9.154;2023-10-08T08:35:13;101167.00;;;16.98;100.00
71465;BME280;59274;49.874;9.154;2023-10-08T08:37:42;101169.00;;;17.05;100.00
71465;BME280;59274;49.874;9.154;2023-10-08T08:40:09;101157.22;;;17.18;100.00
71465;BME280;59274;49.874;9.154;2023-10-08T08:42:44;101162.69;;;17.29;100.00
71465;BME280;59274;49.874;9.154;2023-10-08T08:45:13;101163.47;;;17.40;100.00
71465;BME280;59274;49.874;9.154;2023-10-08T08:47:40;101171.69;;;17.40;100.00
71465;BME280;59274;49.874;9.154;2023-10-08T08:50:07;101175.19;;;17.51;100.00
71465;BME280;59274;49.874;9.154;2023-10-08T08:52:36;101182.22;;;17.56;100.00
71465;BME280;59274;49.874;9.154;2023-10-08T08:55:04;101175.16;;;17.58;100.00
71465;BME280;59274;49.874;9.154;2023-10-08T08:57:34;101186.94;;;17.59;100.00
71465;BME280;59274;49.874;9.154;2023-10-08T08:59:59;101191.63;;;17.69;100.00
71465;BME280;59274;49.874;9.154;2023-10-08T09:02:25;101194.00;;;17.74;100.00
71465;BME280;59274;49.874;9.154;2023-10-08T09:04:50;101194.34;;;17.83;100.00
71465;BME280;59274;49.874;9.154;2023-10-08T09:07:21;101199.06;;;17.86;100.00
71465;BME280;59274;49.874;9.154;2023-10-08T09:09:47;101193.94;;;17.92;100.00
71465;BME280;59274;49.874;9.154;2023-10-08T09:12:16;101200.22;;;17.92;100.00
71465;BME280;59274;49.874;9.154;2023-10-08T09:14:42;101209.59;;;18.02;100.00
71465;BME280;59274;49.874;9.154;2023-10-08T09:17:10;101207.25;;;18.04;100.00
71465;BME280;59274;49.874;9.154;2023-10-08T09:19:36;101217.03;;;18.05;100.00
71465;BME280;59274;49.874;9.154;2023-10-08T09:22:06;101208.75;;;18.12;100.00
71465;BME280;59274;49.874;9.154;2023-10-08T09:24:37;101203.22;;;18.23;100.00
71465;BME280;59274;49.874;9.154;2023-10-08T09:27:04;101215.75;;;18.31;100.00
71465;BME280;59274;49.874;9.154;2023-10-08T09:29:30;101225.91;;;18.41;100.00
71465;BME280;59274;49.874;9.154;2023-10-08T09:31:57;101216.19;;;18.22;100.00
71465;BME280;59274;49.874;9.154;2023-10-08T09:34:29;101225.19;;;18.26;100.00
71465;BME280;59274;49.874;9.154;2023-10-08T09:36:56;101230.72;;;18.23;100.00
71465;BME280;59274;49.874;9.154;2023-10-08T09:39:22;101236.16;;;18.33;100.00
71465;BME280;59274;49.874;9.154;2023-10-08T09:41:50;101231.75;;;18.54;100.00
71465;BME280;59274;49.874;9.154;2023-10-08T09:44:19;101232.09;;;18.63;100.00
71465;BME280;59274;49.874;9.154;2023-10-08T09:46:52;101232.50;;;18.68;100.00
71465;BME280;59274;49.874;9.154;2023-10-08T09:49:24;101230.09;;;18.74;100.00
71465;BME280;59274;49.874;9.154;2023-10-08T09:51:55;101228.91;;;18.75;100.00
71465;BME280;59274;49.874;9.154;2023-10-08T09:54:23;101228.50;;;18.73;100.00
71465;BME280;59274;49.874;9.154;2023-10-08T09:56:51;101228.13;;;18.74;100.00
71465;BME280;59274;49.874;9.154;2023-10-08T09:59:18;101232.81;;;18.77;100.00
71465;BME280;59274;49.874;9.154;2023-10-08T10:01:45;101244.59;;;18.78;100.00
71465;BME280;59274;49.874;9.154;2023-10-08T10:04:13;101243.69;;;18.95;100.00
71465;BME280;59274;49.874;9.154;2023-10-08T10:06:49;101229.84;;;19.06;100.00
71465;BME280;59274;49.874;9.154;2023-10-08T10:09:22;101231.88;;;18.98;100.00
71465;BME280;59274;49.874;9.154;2023-10-08T10:11:50;101226.34;;;19.02;100.00
71465;BME280;59274;49.874;9.154;2023-10-08T10:14:16;101216.78;;;19.13;100.00
71465;BME280;59274;49.874;9.154;2023-10-08T10:16:43;101214.38;;;19.23;100.00
71465;BME280;59274;49.874;9.154;2023-10-08T10:19:20;101222.22;;;19.24;100.00
71465;BME280;59274;49.874;9.154;2023-10-08T10:21:46;101220.47;;;19.44;100.00
71465;BME280;59274;49.874;9.154;2023-10-08T10:24:23;101218.88;;;19.47;100.00
71465;BME280;59274;49.874;9.154;2023-10-08T10:27:09;101228.56;;;19.62;100.00
71465;BME280;59274;49.874;9.154;2023-10-08T10:29:35;101228.22;;;19.57;100.00
71465;BME280;59274;49.874;9.154;2023-10-08T10:32:01;101235.34;;;19.54;100.00
71465;BME280;59274;49.874;9.154;2023-10-08T10:34:27;101215.38;;;19.46;100.00
71465;BME280;59274;49.874;9.154;2023-10-08T10:36:54;101217.78;;;19.34;100.00
71465;BME280;59274;49.874;9.154;2023-10-08T10:39:22;101208.75;;;19.33;100.00
71465;BME280;59274;49.874;9.154;2023-10-08T10:42:01;101219.75;;;19.33;100.00
71465;BME280;59274;49.874;9.154;2023-10-08T10:44:29;101235.81;;;19.42;100.00
71465;BME280;59274;49.874;9.154;2023-10-08T10:46:58;101237.41;;;19.46;100.00
71465;BME280;59274;49.874;9.154;2023-10-08T10:49:53;101238.84;;;19.58;100.00
71465;BME280;59274;49.874;9.154;2023-10-08T10:52:26;101231.16;;;19.76;100.00
71465;BME280;59274;49.874;9.154;2023-10-08T10:55:11;101229.00;;;19.61;100.00
71465;BME280;59274;49.874;9.154;2023-10-08T10:57:40;101229.56;;;19.79;100.00
71465;BME280;59274;49.874;9.154;2023-10-08T11:00:08;101234.75;;;20.07;100.00
71465;BME280;59274;49.874;9.154;2023-10-08T11:02:56;101238.41;;;19.97;100.00
71465;BME280;59274;49.874;9.154;2023-10-08T11:05:32;101244.06;;;19.86;100.00
71465;BME280;59274;49.874;9.154;2023-10-08T11:08:03;101250.22;;;19.98;100.00
71465;BME280;59274;49.874;9.154;2023-10-08T11:10:34;101257.25;;;20.06;100.00
71465;BME280;59274;49.874;9.154;2023-10-08T11:13:00;101259.75;;;20.27;98.33
71465;BME280;59274;49.874;9.154;2023-10-08T11:15:30;101269.03;;;20.44;96.83
71465;BME280;59274;49.874;9.154;2023-10-08T11:18:14;101260.97;;;20.56;93.12
71465;BME280;59274;49.874;9.154;2023-10-08T11:20:43;101258.47;;;20.65;91.58
71465;BME280;59274;49.874;9.154;2023-10-08T11:26:02;101260.50;;;20.31;90.71
71465;BME280;59274;49.874;9.154;2023-10-08T11:28:33;101260.66;;;20.51;89.55
71465;BME280;59274;49.874;9.154;2023-10-08T11:31:01;101271.59;;;20.85;86.44
71465;BME280;59274;49.874;9.154;2023-10-08T11:33:34;101266.00;;;21.15;83.30
71465;BME280;59274;49.874;9.154;2023-10-08T11:36:05;101258.84;;;20.94;82.32
71465;BME280;59274;49.874;9.154;2023-10-08T11:38:56;101255.78;;;20.89;82.65
71465;BME280;59274;49.874;9.154;2023-10-08T11:41:27;101255.66;;;20.96;82.53
71465;BME280;59274;49.874;9.154;2023-10-08T11:43:57;101241.53;;;20.90;81.52
71465;BME280;59274;49.874;9.154;2023-10-08T11:46:26;101246.31;;;21.13;82.60
71465;BME280;59274;49.874;9.154;2023-10-08T11:49:04;101245.16;;;21.10;81.03
71465;BME280;59274;49.874;9.154;2023-10-08T11:51:34;101235.63;;;21.15;81.00
71465;BME280;59274;49.874;9.154;2023-10-08T11:54:03;101238.72;;;21.21;80.90
71465;BME280;59274;49.874;9.154;2023-10-08T11:56:32;101231.69;;;21.13;81.33
71465;BME280;59274;49.874;9.154;2023-10-08T11:59:01;101224.28;;;21.09;81.06
71465;BME280;59274;49.874;9.154;2023-10-08T12:01:30;101229.06;;;21.05;81.30
71465;BME280;59274;49.874;9.154;2023-10-08T12:04:00;101219.44;;;20.90;81.63
71465;BME280;59274;49.874;9.154;2023-10-08T12:06:26;101216.75;;;21.10;83.02
71465;BME280;59274;49.874;9.154;2023-10-08T12:08:55;101217.63;;;21.03;82.80
71465;BME280;59274;49.874;9.154;2023-10-08T12:11:26;101207.91;;;20.72;83.17
71465;BME280;59274;49.874;9.154;2023-10-08T12:13:59;101213.44;;;20.68;84.88
71465;BME280;59274;49.874;9.154;2023-10-08T12:16:25;101212.53;;;20.79;84.62
71465;BME280;59274;49.874;9.154;2023-10-08T12:18:55;101203.53;;;20.75;84.30
71465;BME280;59274;49.874;9.154;2023-10-08T12:21:25;101213.50;;;20.92;84.37
71465;BME280;59274;49.874;9.154;2023-10-08T12:23:50;101213.44;;;20.95;83.55
71465;BME280;59274;49.874;9.154;2023-10-08T12:26:17;101210.25;;;20.97;83.82
71465;BME280;59274;49.874;9.154;2023-10-08T12:28:51;101211.06;;;21.21;83.24
71465;BME280;59274;49.874;9.154;2023-10-08T12:31:18;101209.50;;;21.20;82.05
71465;BME280;59274;49.874;9.154;2023-10-08T12:33:49;101220.19;;;21.18;81.20
71465;BME280;59274;49.874;9.154;2023-10-08T12:36:22;101224.53;;;20.92;83.16
71465;BME280;59274;49.874;9.154;2023-10-08T12:38:48;101221.28;;;20.74;84.06
71465;BME280;59274;49.874;9.154;2023-10-08T12:41:14;101217.84;;;20.66;88.09
71465;BME280;59274;49.874;9.154;2023-10-08T12:43:41;101218.94;;;20.72;85.63
71465;BME280;59274;49.874;9.154;2023-10-08T12:46:18;101220.56;;;21.20;84.30
71465;BME280;59274;49.874;9.154;2023-10-08T12:48:47;101216.84;;;21.73;81.33
71465;BME280;59274;49.874;9.154;2023-10-08T12:51:17;101218.78;;;22.15;76.75
71465;BME280;59274;49.874;9.154;2023-10-08T12:53:43;101208.25;;;22.26;78.16
71465;BME280;59274;49.874;9.154;2023-10-08T12:56:16;101213.47;;;22.41;75.62
71465;BME280;59274;49.874;9.154;2023-10-08T12:58:42;101210.22;;;22.62;75.64
71465;BME280;59274;49.874;9.154;2023-10-08T13:01:10;101194.16;;;22.89;72.02
71465;BME280;59274;49.874;9.154;2023-10-08T13:03:37;101200.13;;;22.88;73.01
71465;BME280;59274;49.874;9.154;2023-10-08T13:06:19;101202.72;;;22.95;72.83